createdAt,value
2022-10-19T00:01:26.765Z,99.90
2022-10-19T00:03:57.126Z,99.90
2022-10-19T00:06:28.975Z,99.90
2022-10-19T00:09:01.471Z,99.90
2022-10-19T00:11:31.428Z,99.90
2022-10-19T00:14:02.845Z,99.90
2022-10-19T00:16:38.175Z,99.90
2022-10-19T00:19:10.252Z,99.90
2022-10-19T00:21:40.591Z,99.90
2022-10-19T00:24:10.088Z,99.90
2022-10-19T00:26:38.847Z,99.90
2022-10-19T00:29:09.167Z,99.90
2022-10-19T00:31:37.698Z,99.90
2022-10-19T00:34:06.576Z,99.90
2022-10-19T00:36:37.670Z,99.90
2022-10-19T00:39:09.708Z,99.90
2022-10-19T00:41:39.370Z,99.90
2022-10-19T00:44:43.410Z,99.90
2022-10-19T00:47:12.123Z,99.90
2022-10-19T00:49:46.783Z,99.90
2022-10-19T00:52:18.828Z,99.90
2022-10-19T00:54:50.630Z,99.90
2022-10-19T00:57:19.614Z,99.90
2022-10-19T00:59:50.636Z,99.90
2022-10-19T01:02:19.607Z,99.90
2022-10-19T01:04:53.195Z,99.90
2022-10-19T01:07:22.455Z,99.90
2022-10-19T01:09:50.990Z,99.90
2022-10-19T01:12:57.500Z,99.90
2022-10-19T01:15:39.281Z,99.90
2022-10-19T01:18:22.383Z,99.90
2022-10-19T01:21:23.536Z,99.90
2022-10-19T01:24:33.963Z,99.90
2022-10-19T01:27:45.213Z,99.90
2022-10-19T01:30:21.553Z,99.90
2022-10-19T01:33:07.995Z,99.90
2022-10-19T01:35:47.926Z,99.90
2022-10-19T01:38:28.082Z,99.90
2022-10-19T01:41:07.378Z,99.90
2022-10-19T01:43:44.142Z,99.90
2022-10-19T01:46:20.895Z,99.90
2022-10-19T01:48:56.430Z,99.90
2022-10-19T01:51:32.636Z,99.90
2022-10-19T01:54:07.850Z,99.90
2022-10-19T01:56:38.946Z,99.90
2022-10-19T01:59:11.596Z,99.90
2022-10-19T02:01:46.626Z,99.90
2022-10-19T02:04:21.134Z,99.90
2022-10-19T02:06:51.567Z,99.90
2022-10-19T02:09:20.719Z,99.90
2022-10-19T02:11:57.003Z,99.90
2022-10-19T02:14:32.217Z,99.90
2022-10-19T02:17:07.336Z,99.90
2022-10-19T02:19:36.384Z,99.90
2022-10-19T02:22:05.770Z,99.90
2022-10-19T02:24:34.195Z,99.90
2022-10-19T02:27:04.967Z,99.90
2022-10-19T02:29:35.551Z,99.90
2022-10-19T02:32:06.435Z,99.90
2022-10-19T02:34:36.631Z,99.90
2022-10-19T02:37:06.348Z,99.90
2022-10-19T02:39:35.079Z,99.90
2022-10-19T02:42:11.382Z,99.90
2022-10-19T02:44:47.299Z,99.90
2022-10-19T02:47:21.178Z,99.90
2022-10-19T02:49:50.871Z,99.90
2022-10-19T02:52:19.821Z,99.90
2022-10-19T02:54:48.533Z,99.90
2022-10-19T02:57:19.902Z,99.90
2022-10-19T02:59:48.998Z,99.90
2022-10-19T03:02:20.397Z,99.90
2022-10-19T03:04:49.460Z,99.90
2022-10-19T03:07:20.815Z,99.90
2022-10-19T03:09:50.073Z,99.90
2022-10-19T03:12:19.206Z,99.90
2022-10-19T03:14:47.885Z,99.90
2022-10-19T03:17:16.337Z,99.90
2022-10-19T03:19:47.102Z,99.90
2022-10-19T03:22:16.108Z,99.90
2022-10-19T03:24:44.671Z,99.90
2022-10-19T03:27:13.183Z,99.90
2022-10-19T03:29:41.685Z,99.90
2022-10-19T03:32:10.183Z,99.90
2022-10-19T03:34:38.843Z,99.90
2022-10-19T03:37:08.711Z,99.90
2022-10-19T03:39:37.275Z,99.90
2022-10-19T03:42:05.906Z,99.90
2022-10-19T03:44:34.386Z,99.90
2022-10-19T03:47:02.836Z,99.90
2022-10-19T03:49:31.269Z,99.90
2022-10-19T03:51:59.931Z,99.90
2022-10-19T03:54:29.778Z,99.90
2022-10-19T03:56:58.424Z,99.90
2022-10-19T03:59:26.903Z,99.90
2022-10-19T04:01:55.350Z,99.90
2022-10-19T04:04:24.020Z,99.90
2022-10-19T04:06:53.989Z,99.90
2022-10-19T04:09:24.315Z,99.90
2022-10-19T04:11:54.167Z,99.90
2022-10-19T04:14:32.184Z,99.90
2022-10-19T04:17:02.422Z,99.90
2022-10-19T04:19:31.501Z,99.90
2022-10-19T04:22:00.408Z,99.90
2022-10-19T04:24:29.482Z,99.90
2022-10-19T04:26:59.349Z,99.90
2022-10-19T04:29:30.159Z,99.90
2022-10-19T04:32:00.105Z,99.90
2022-10-19T04:34:28.857Z,99.90
2022-10-19T04:36:59.699Z,99.90
2022-10-19T04:39:28.342Z,99.90
2022-10-19T04:41:58.175Z,99.90
2022-10-19T04:44:26.680Z,99.90
2022-10-19T04:46:55.179Z,99.90
2022-10-19T04:49:23.619Z,99.90
2022-10-19T04:51:52.134Z,99.90
2022-10-19T04:54:20.598Z,99.90
2022-10-19T04:56:49.027Z,99.90
2022-10-19T04:59:19.111Z,99.90
2022-10-19T05:01:47.759Z,99.90
2022-10-19T05:04:16.397Z,99.90
2022-10-19T05:06:44.858Z,99.90
2022-10-19T05:09:13.616Z,99.90
2022-10-19T05:11:42.117Z,99.90
2022-10-19T05:14:10.595Z,99.90
2022-10-19T05:16:40.681Z,99.90
2022-10-19T05:19:13.765Z,99.90
2022-10-19T05:21:42.328Z,99.90
2022-10-19T05:24:14.629Z,99.90
2022-10-19T05:26:43.269Z,99.90
2022-10-19T05:29:14.697Z,99.90
2022-10-19T05:31:44.782Z,99.90
2022-10-19T05:34:13.247Z,99.90
2022-10-19T05:36:42.111Z,99.90
2022-10-19T05:39:15.607Z,99.90
2022-10-19T05:41:45.922Z,99.90
2022-10-19T05:44:18.447Z,99.90
2022-10-19T05:46:49.401Z,99.90
2022-10-19T05:49:21.503Z,99.90
2022-10-19T05:51:50.224Z,99.90
2022-10-19T05:54:19.838Z,99.90
2022-10-19T05:56:49.778Z,99.90
2022-10-19T05:59:21.512Z,99.90
2022-10-19T06:01:51.512Z,99.90
2022-10-19T06:04:20.246Z,99.90
2022-10-19T06:06:48.958Z,99.90
2022-10-19T06:09:17.461Z,99.90
2022-10-19T06:11:46.168Z,99.90
2022-10-19T06:14:17.410Z,99.90
2022-10-19T06:16:47.145Z,99.90
2022-10-19T06:19:16.984Z,99.90
2022-10-19T06:21:47.031Z,99.90
2022-10-19T06:24:15.768Z,99.90
2022-10-19T06:26:44.326Z,99.90
2022-10-19T06:29:13.104Z,99.90
2022-10-19T06:31:41.599Z,99.90
2022-10-19T06:34:10.205Z,99.90
2022-10-19T06:36:40.153Z,99.90
2022-10-19T06:39:09.490Z,99.90
2022-10-19T06:41:38.232Z,99.90
2022-10-19T06:44:07.035Z,99.90
2022-10-19T06:46:35.695Z,99.90
2022-10-19T06:49:04.725Z,99.90
2022-10-19T06:51:34.171Z,99.90
2022-10-19T06:54:04.266Z,99.90
2022-10-19T06:56:32.744Z,99.90
2022-10-19T06:59:01.465Z,99.90
2022-10-19T07:01:30.088Z,99.90
2022-10-19T07:03:58.664Z,99.90
2022-10-19T07:06:30.024Z,99.90
2022-10-19T07:08:58.463Z,99.90
2022-10-19T07:11:28.288Z,99.90
2022-10-19T07:13:56.786Z,99.90
2022-10-19T07:16:25.350Z,99.90
2022-10-19T07:18:54.812Z,99.90
2022-10-19T07:21:24.543Z,99.90
2022-10-19T07:23:53.130Z,99.90
2022-10-19T07:26:26.577Z,99.90
2022-10-19T07:28:58.748Z,99.90
2022-10-19T07:31:29.648Z,99.90
2022-10-19T07:34:00.728Z,99.90
2022-10-19T07:36:31.344Z,99.90
2022-10-19T07:39:02.033Z,99.90
2022-10-19T07:41:30.639Z,99.90
2022-10-19T07:44:00.495Z,99.90
2022-10-19T07:46:33.789Z,99.90
2022-10-19T07:49:03.129Z,99.90
2022-10-19T07:51:32.047Z,99.90
2022-10-19T07:54:00.662Z,99.90
2022-10-19T07:56:30.841Z,99.90
2022-10-19T07:59:03.014Z,99.90
2022-10-19T08:01:34.122Z,99.90
2022-10-19T08:06:51.524Z,99.90
2022-10-19T08:09:47.395Z,99.90
2022-10-19T08:12:12.475Z,99.90
2022-10-19T08:14:44.145Z,99.90
2022-10-19T08:17:16.781Z,99.90
2022-10-19T08:19:45.745Z,99.90
2022-10-19T08:22:14.234Z,99.90
2022-10-19T08:24:42.712Z,99.90
2022-10-19T08:27:11.269Z,99.90
2022-10-19T08:29:39.989Z,99.90
2022-10-19T08:32:09.851Z,99.90
2022-10-19T08:34:38.328Z,99.90
2022-10-19T08:37:14.958Z,99.90
2022-10-19T08:39:55.179Z,99.90
2022-10-19T08:42:34.629Z,99.90
2022-10-19T08:45:31.894Z,99.90
2022-10-19T08:48:22.623Z,99.90
2022-10-19T08:50:51.791Z,99.90
2022-10-19T08:53:28.397Z,99.90
2022-10-19T08:56:22.283Z,99.90
2022-10-19T08:59:16.390Z,99.90
2022-10-19T09:01:53.482Z,99.90
2022-10-19T09:04:29.972Z,99.90
2022-10-19T09:07:24.143Z,99.90
2022-10-19T09:09:59.291Z,99.90
2022-10-19T09:12:41.077Z,99.90
2022-10-19T09:15:16.335Z,99.90
2022-10-19T09:17:44.940Z,99.90
2022-10-19T09:20:22.675Z,99.90
2022-10-19T09:23:03.697Z,99.90
2022-10-19T09:25:36.198Z,99.90
2022-10-19T09:28:19.352Z,99.90
2022-10-19T09:30:53.288Z,99.90
2022-10-19T09:33:32.310Z,99.90
2022-10-19T09:36:04.202Z,99.90
2022-10-19T09:38:32.991Z,99.40
2022-10-19T09:41:17.314Z,99.80
2022-10-19T09:43:53.753Z,99.40
2022-10-19T09:46:39.000Z,98.00
2022-10-19T09:49:07.736Z,98.40
2022-10-19T09:51:52.522Z,99.20
2022-10-19T09:54:38.808Z,98.70
2022-10-19T09:57:07.758Z,98.10
2022-10-19T09:59:38.174Z,98.10
2022-10-19T10:02:23.986Z,98.20
2022-10-19T10:05:03.089Z,98.20
2022-10-19T10:07:39.667Z,97.80
2022-10-19T10:10:25.520Z,97.20
2022-10-19T10:12:55.466Z,97.20
2022-10-19T10:15:28.012Z,96.30
2022-10-19T10:17:59.365Z,96.10
2022-10-19T10:20:32.584Z,95.20
2022-10-19T10:23:05.952Z,95.10
2022-10-19T10:25:38.188Z,96.00
2022-10-19T10:28:21.517Z,95.80
2022-10-19T10:30:55.906Z,95.40
2022-10-19T10:33:43.715Z,96.60
2022-10-19T10:36:13.694Z,96.50
2022-10-19T10:38:48.166Z,96.70
2022-10-19T10:41:20.451Z,95.70
2022-10-19T10:44:00.898Z,95.70
2022-10-19T10:46:37.976Z,95.90
2022-10-19T10:49:17.613Z,95.00
2022-10-19T10:51:53.016Z,93.10
2022-10-19T10:54:26.021Z,93.00
2022-10-19T10:57:12.422Z,92.80
2022-10-19T10:59:57.404Z,91.40
2022-10-19T11:02:35.803Z,90.80
2022-10-19T11:05:12.798Z,90.80
2022-10-19T11:07:46.702Z,90.40
2022-10-19T11:10:27.683Z,90.00
2022-10-19T11:13:06.994Z,90.40
2022-10-19T11:15:47.449Z,90.10
2022-10-19T11:18:24.504Z,90.60
2022-10-19T11:21:06.551Z,89.70
2022-10-19T11:23:53.054Z,88.80
2022-10-19T11:26:49.028Z,87.70
2022-10-19T11:29:44.334Z,89.00
2022-10-19T11:32:26.408Z,86.80
2022-10-19T11:35:13.450Z,86.00
2022-10-19T11:38:17.368Z,87.10
2022-10-19T11:41:13.141Z,84.30
2022-10-19T11:43:59.573Z,84.90
2022-10-19T11:46:40.246Z,86.30
2022-10-19T11:49:27.696Z,83.90
2022-10-19T11:52:02.781Z,85.30
2022-10-19T11:54:50.227Z,85.70
2022-10-19T11:57:25.013Z,82.70
2022-10-19T12:00:15.306Z,83.20
2022-10-19T12:03:50.512Z,85.30
2022-10-19T12:06:29.888Z,83.80
2022-10-19T12:09:28.510Z,84.70
2022-10-19T12:12:23.056Z,84.40
2022-10-19T12:14:58.133Z,87.60
2022-10-19T12:17:34.445Z,85.20
2022-10-19T12:20:09.662Z,84.70
2022-10-19T12:22:39.310Z,86.70
2022-10-19T12:25:08.574Z,86.30
2022-10-19T12:27:41.977Z,86.70
2022-10-19T12:30:17.482Z,86.90
2022-10-19T12:33:08.038Z,87.90
2022-10-19T12:36:13.998Z,87.40
2022-10-19T12:39:00.639Z,88.50
2022-10-19T12:41:40.419Z,86.10
2022-10-19T12:44:28.305Z,87.90
2022-10-19T12:47:09.671Z,86.80
2022-10-19T12:49:47.523Z,86.00
2022-10-19T12:52:35.911Z,88.30
2022-10-19T12:55:28.062Z,87.80
2022-10-19T12:58:06.978Z,86.30
2022-10-19T13:00:38.831Z,84.00
2022-10-19T13:03:16.862Z,82.70
2022-10-19T13:05:58.551Z,83.10
2022-10-19T13:08:32.937Z,81.50
2022-10-19T13:11:08.219Z,82.70
2022-10-19T13:13:59.062Z,83.20
2022-10-19T13:16:59.823Z,85.30
2022-10-19T13:19:28.952Z,84.20
2022-10-19T13:22:31.202Z,82.20
2022-10-19T13:25:28.313Z,80.60
2022-10-19T13:28:02.667Z,81.10
2022-10-19T13:31:08.350Z,80.70
2022-10-19T13:33:49.636Z,78.50
2022-10-19T13:36:19.502Z,80.40
2022-10-19T13:39:06.159Z,81.20
2022-10-19T13:41:57.950Z,80.30
2022-10-19T13:44:33.825Z,81.00
2022-10-19T13:47:41.055Z,80.70
2022-10-19T13:50:36.277Z,80.40
2022-10-19T13:53:37.413Z,82.00
2022-10-19T13:56:33.365Z,80.80
2022-10-19T13:59:53.856Z,81.50
2022-10-19T14:03:06.633Z,83.80
2022-10-19T14:06:01.444Z,87.10
2022-10-19T14:09:01.149Z,88.00
2022-10-19T14:11:36.520Z,88.60
2022-10-19T14:14:18.660Z,89.90
2022-10-19T14:16:58.252Z,90.50
2022-10-19T14:19:34.804Z,90.30
2022-10-19T14:22:22.543Z,90.00
2022-10-19T14:24:51.006Z,89.90
2022-10-19T14:27:25.917Z,90.30
2022-10-19T14:29:56.312Z,90.60
2022-10-19T14:32:28.614Z,90.90
2022-10-19T14:37:38.866Z,91.60
2022-10-19T14:40:26.813Z,92.50
2022-10-19T14:43:00.683Z,93.00
2022-10-19T14:45:32.418Z,92.00
2022-10-19T14:48:03.762Z,91.60
2022-10-19T14:50:43.956Z,91.90
2022-10-19T14:53:33.395Z,91.50
2022-10-19T14:56:09.503Z,91.00
2022-10-19T14:58:50.290Z,91.40
2022-10-19T15:01:21.507Z,91.60
2022-10-19T15:03:52.029Z,91.70
2022-10-19T15:06:27.090Z,92.00
2022-10-19T15:08:59.363Z,92.00
2022-10-19T15:11:32.147Z,91.80
2022-10-19T15:14:08.983Z,92.00
2022-10-19T15:16:51.994Z,92.30
2022-10-19T15:19:29.768Z,92.20
2022-10-19T15:22:20.687Z,92.70
2022-10-19T15:25:02.233Z,92.90
2022-10-19T15:27:35.356Z,92.30
2022-10-19T15:30:24.564Z,92.70
2022-10-19T15:33:09.072Z,92.70
2022-10-19T15:35:40.755Z,93.00
2022-10-19T15:38:19.842Z,93.30
2022-10-19T15:40:49.489Z,93.40
2022-10-19T15:43:55.063Z,93.50
2022-10-19T15:46:32.855Z,93.60
2022-10-19T15:49:05.858Z,94.00
2022-10-19T15:51:46.173Z,94.00
2022-10-19T15:54:17.637Z,94.00
2022-10-19T15:56:48.650Z,94.00
2022-10-19T15:59:23.885Z,94.50
2022-10-19T16:01:56.132Z,94.30
2022-10-19T16:04:24.838Z,94.40
2022-10-19T16:06:53.446Z,94.00
2022-10-19T16:09:23.251Z,94.30
2022-10-19T16:11:56.914Z,94.30
2022-10-19T16:14:26.518Z,94.30
2022-10-19T16:17:04.554Z,94.50
2022-10-19T16:19:33.204Z,94.80
2022-10-19T16:22:01.910Z,94.40
2022-10-19T16:24:30.395Z,94.10
2022-10-19T16:26:59.191Z,93.90
2022-10-19T16:29:28.992Z,93.80
2022-10-19T16:31:59.082Z,93.70
2022-10-19T16:34:27.693Z,93.70
2022-10-19T16:36:56.171Z,94.00
2022-10-19T16:39:25.610Z,94.10
2022-10-19T16:41:54.834Z,95.10
2022-10-19T16:44:23.298Z,95.10
2022-10-19T16:46:51.758Z,94.80
2022-10-19T16:49:21.599Z,95.50
2022-10-19T16:51:53.217Z,95.40
2022-10-19T16:54:26.058Z,96.00
2022-10-19T16:56:55.667Z,96.50
2022-10-19T16:59:24.489Z,96.30
2022-10-19T17:01:53.904Z,97.10
2022-10-19T17:04:24.213Z,97.40
2022-10-19T17:06:52.909Z,97.60
2022-10-19T17:09:40.905Z,97.80
2022-10-19T17:12:10.911Z,98.00
2022-10-19T17:14:42.887Z,99.00
2022-10-19T17:17:13.113Z,98.70
2022-10-19T17:19:42.976Z,98.90
2022-10-19T17:22:11.675Z,98.80
2022-10-19T17:24:40.421Z,98.90
2022-10-19T17:27:09.171Z,99.20
2022-10-19T17:29:37.637Z,99.90
2022-10-19T17:32:06.666Z,99.50
2022-10-19T17:34:35.206Z,98.70
2022-10-19T17:39:52.254Z,99.90
2022-10-19T17:42:20.708Z,99.90
2022-10-19T17:44:49.172Z,99.90
2022-10-19T17:47:17.753Z,99.40
2022-10-19T17:49:46.207Z,99.90
2022-10-19T17:52:16.150Z,99.90
2022-10-19T17:54:54.667Z,99.90
2022-10-19T17:57:33.690Z,99.90
2022-10-19T18:00:02.536Z,99.90
2022-10-19T18:02:31.075Z,99.90
2022-10-19T18:04:59.554Z,99.90
2022-10-19T18:07:29.373Z,99.90
2022-10-19T18:09:57.948Z,99.90
2022-10-19T18:12:26.798Z,99.90
2022-10-19T18:14:55.276Z,99.90
2022-10-19T18:17:26.906Z,99.90
2022-10-19T18:19:56.569Z,99.90
2022-10-19T18:22:25.028Z,99.90
2022-10-19T18:24:55.091Z,99.90
2022-10-19T18:27:23.546Z,99.90
2022-10-19T18:29:52.320Z,99.90
2022-10-19T18:32:20.979Z,99.90
2022-10-19T18:34:49.589Z,99.90
2022-10-19T18:37:18.288Z,99.90
2022-10-19T18:39:46.781Z,99.90
2022-10-19T18:42:17.851Z,99.90
2022-10-19T18:44:47.437Z,99.90
2022-10-19T18:47:15.933Z,99.90
2022-10-19T18:49:44.403Z,99.90
2022-10-19T18:52:12.863Z,99.90
2022-10-19T18:54:41.338Z,99.90
2022-10-19T18:57:09.987Z,99.90
2022-10-19T18:59:39.951Z,99.90
2022-10-19T19:02:13.694Z,99.90
2022-10-19T19:04:51.524Z,99.90
2022-10-19T19:07:20.545Z,99.90
2022-10-19T19:09:51.112Z,99.90
2022-10-19T19:12:19.615Z,99.90
2022-10-19T19:14:49.520Z,99.90
2022-10-19T19:17:17.997Z,99.90
2022-10-19T19:19:46.479Z,99.90
2022-10-19T19:22:15.124Z,99.90
2022-10-19T19:24:43.721Z,99.90
2022-10-19T19:27:12.388Z,99.90
2022-10-19T19:29:40.852Z,99.90
2022-10-19T19:32:10.663Z,99.90
2022-10-19T19:34:39.115Z,99.90
2022-10-19T19:37:10.444Z,99.90
2022-10-19T19:39:40.191Z,99.90
2022-10-19T19:42:09.320Z,99.90
2022-10-19T19:44:37.777Z,99.90
2022-10-19T19:47:07.238Z,99.90
2022-10-19T19:49:37.205Z,99.90
2022-10-19T19:52:05.878Z,99.90
2022-10-19T19:54:34.327Z,99.90
2022-10-19T19:57:03.008Z,99.90
2022-10-19T19:59:31.488Z,99.90
2022-10-19T20:02:01.677Z,99.90
2022-10-19T20:04:30.245Z,99.90
2022-10-19T20:07:00.115Z,99.90
2022-10-19T20:09:29.844Z,99.90
2022-10-19T20:11:58.342Z,99.90
2022-10-19T20:14:26.881Z,99.90
2022-10-19T20:16:55.299Z,99.90
2022-10-19T20:19:24.010Z,99.90
2022-10-19T20:21:52.905Z,99.90
2022-10-19T20:24:23.097Z,99.90
2022-10-19T20:26:51.550Z,99.90
2022-10-19T20:29:20.559Z,99.90
2022-10-19T20:31:49.012Z,99.90
2022-10-19T20:34:20.568Z,99.90
2022-10-19T20:36:52.383Z,99.90
2022-10-19T20:39:22.229Z,99.90
2022-10-19T20:41:50.944Z,99.90
2022-10-19T20:44:19.527Z,99.90
2022-10-19T20:46:50.162Z,99.90
2022-10-19T20:49:18.654Z,99.90
2022-10-19T20:51:47.703Z,99.90
2022-10-19T20:54:16.357Z,99.90
2022-10-19T20:56:46.320Z,99.90
2022-10-19T20:59:18.100Z,99.90
2022-10-19T21:01:51.066Z,99.90
2022-10-19T21:04:20.366Z,99.90
2022-10-19T21:06:51.956Z,99.90
2022-10-19T21:09:23.206Z,99.90
2022-10-19T21:11:54.066Z,99.90
2022-10-19T21:14:28.058Z,99.90
2022-10-19T21:16:58.322Z,99.90
2022-10-19T21:22:20.441Z,99.90
2022-10-19T21:24:49.207Z,99.90
2022-10-19T21:27:19.041Z,99.90
2022-10-19T21:29:47.508Z,99.90
2022-10-19T21:32:16.568Z,99.90
2022-10-19T21:34:45.026Z,99.90
2022-10-19T21:37:13.461Z,99.90
2022-10-19T21:39:41.948Z,99.90
2022-10-19T21:42:10.605Z,99.90
2022-10-19T21:44:40.485Z,99.90
2022-10-19T21:47:09.273Z,99.90
2022-10-19T21:49:37.737Z,99.90
2022-10-19T21:52:06.600Z,99.90
2022-10-19T21:54:35.040Z,99.90
2022-10-19T21:57:03.782Z,99.90
2022-10-19T21:59:32.226Z,99.90
2022-10-19T22:02:02.261Z,99.90
2022-10-19T22:04:30.955Z,99.90
2022-10-19T22:07:01.387Z,99.90
2022-10-19T22:09:30.066Z,99.90
2022-10-19T22:11:58.509Z,99.90
2022-10-19T22:14:27.017Z,99.90
2022-10-19T22:16:55.488Z,99.90
2022-10-19T22:19:26.301Z,99.90
2022-10-19T22:21:54.742Z,99.90
2022-10-19T22:24:23.214Z,99.90
2022-10-19T22:26:52.039Z,99.90
2022-10-19T22:29:21.102Z,99.90
2022-10-19T22:31:49.551Z,99.90
2022-10-19T22:34:19.496Z,99.90
2022-10-19T22:36:49.588Z,99.90
2022-10-19T22:39:18.404Z,99.90
2022-10-19T22:41:47.068Z,99.90
2022-10-19T22:44:15.537Z,99.90
2022-10-19T22:46:44.331Z,99.90
2022-10-19T22:49:12.965Z,99.90
2022-10-19T22:51:41.386Z,99.90
2022-10-19T22:54:11.233Z,99.90
2022-10-19T22:56:40.475Z,99.90
2022-10-19T22:59:09.696Z,99.90
2022-10-19T23:01:38.637Z,99.90
2022-10-19T23:04:07.352Z,99.90
2022-10-19T23:06:35.831Z,99.90
2022-10-19T23:09:04.685Z,99.90
2022-10-19T23:11:34.536Z,99.90
2022-10-19T23:14:03.248Z,99.90
2022-10-19T23:16:31.902Z,99.90
2022-10-19T23:19:00.318Z,99.90
2022-10-19T23:21:29.057Z,99.90
2022-10-19T23:23:57.480Z,99.90
2022-10-19T23:26:26.338Z,99.90
2022-10-19T23:28:56.112Z,99.90
2022-10-19T23:31:30.217Z,99.90
2022-10-19T23:33:58.658Z,99.90
2022-10-19T23:36:29.983Z,99.90
2022-10-19T23:38:59.379Z,99.90
2022-10-19T23:41:28.112Z,99.90
2022-10-19T23:43:58.009Z,99.90
2022-10-19T23:46:26.509Z,99.90
2022-10-19T23:48:55.215Z,99.90
2022-10-19T23:51:24.154Z,99.90
2022-10-19T23:53:54.282Z,99.90
2022-10-19T23:56:24.901Z,99.90
2022-10-19T23:58:54.045Z,99.90
